• Join FlightAware (Why Join?)
  • Login
  • US Flag 
Gobble Gobble! 
07:24AM EST


 

Airport Tracker/Info


-or-


 

Live Flight TrackerFlight Track Log ✈ CSJ405 ✈ 08-May-2013 ✈ KCDW - KROC

Flight Track Log - Related Links

Times and Time Zones

All times are in EDT time to prevent confusion due to time zone crossing. See the CSJ405 flight status page for this flight to view local times or setup timezone preferences in your user account.

Time Position Orientation Groundspeed Altitude Reporting Facility
EDT Latitude Longitude Course Direction KTS MPH feet Rate Location/Type
08:26PM 41.1000 -74.5833 316° Northwest 173 199 3,900  Level New York TRACON
08:28PM 41.1923 -74.7178 312° West  Level Estimated
08:35PM 41.6212 -75.3502 312° West  Level Estimated
08:36PM 41.6822 -75.4412 312° West  Level Estimated
08:37PM 41.7134 -75.4944 308° West  Level FlightAware Approximate
08:38PM 41.7476 -75.5446 313° West  Level FlightAware Approximate
08:39PM 41.7820 -75.5942 313° West  Level FlightAware Approximate
08:40PM 41.8164 -75.6439 313° West  Level FlightAware Approximate
08:41PM 41.8507 -75.6936 313° West  Level FlightAware Approximate
08:42PM 41.8843 -75.7442 311° West  Level FlightAware Approximate
08:43PM 41.9173 -75.7957 311° West  Level FlightAware Approximate
08:44PM 41.9502 -75.8472 311° West  Level FlightAware Approximate
08:45PM 41.9832 -75.8988 311° West  Level FlightAware Approximate
08:46PM 42.0160 -75.9504 311° West  Level FlightAware Approximate
08:47PM 42.0489 -76.0021 311° West  Level FlightAware Approximate
08:48PM 42.0817 -76.0538 311° West  Level FlightAware Approximate
08:49PM 42.1146 -76.1056 311° West  Level FlightAware Approximate
08:50PM 42.1474 -76.1575 310° West  Level FlightAware Approximate
08:51PM 42.1801 -76.2094 310° West  Level FlightAware Approximate
08:52PM 42.2129 -76.2613 310° West  Level FlightAware Approximate
08:53PM 42.2456 -76.3133 310° West  Level FlightAware Approximate
08:54PM 42.2783 -76.3654 310° West  Level FlightAware Approximate
08:55PM 42.3110 -76.4175 310° West  Level FlightAware Approximate
08:56PM 42.3436 -76.4697 310° West  Level FlightAware Approximate
08:57PM 42.3762 -76.5219 310° West  Level FlightAware Approximate
08:58PM 42.4096 -76.5733 312° West  Level FlightAware Approximate
08:59PM 42.4516 -76.6095 328° Northwest  Level FlightAware Approximate
09:00PM 42.4936 -76.6458 328° Northwest  Level FlightAware Approximate
09:01PM 42.5356 -76.6821 328° Northwest  Level FlightAware Approximate
09:02PM 42.5777 -76.7184 328° Northwest  Level FlightAware Approximate
09:03PM 42.6084 -76.7717 307° West  Level Estimated
09:04PM 42.6406 -76.8233 310° West  Level FlightAware Approximate
09:05PM 42.6729 -76.8749 310° West  Level FlightAware Approximate
09:06PM 42.7051 -76.9266 310° West  Level FlightAware Approximate
09:07PM 42.7373 -76.9784 310° West  Level FlightAware Approximate
09:08PM 42.7695 -77.0302 310° West  Level FlightAware Approximate
09:09PM 42.8016 -77.0820 310° West  Level FlightAware Approximate
09:10PM 42.8312 -77.1366 300° West  Level Estimated
09:11PM 42.8577 -77.1942 302° West  Level FlightAware Approximate
09:11PM 42.6406 -76.6342 304° West 176 203 8,000  Level Cleveland Center
09:12PM 42.8876 -77.2485 324° Northwest  Level Estimated
09:12PM 42.6544 -76.6672 300° West 177 204 7,900  Level Cleveland Center
09:13PM 42.9176 -77.3029 304° West  Level Estimated
09:13PM 42.6767 -76.7139 303° West 169 194 7,900  Level Cleveland Center
09:14PM 42.9475 -77.3573 304° West  Level Estimated
09:14PM 42.7014 -76.7689 301° West 162 186 7,900  Level Cleveland Center
09:15PM 42.9773 -77.4118 304° West  Level Estimated
09:15PM 42.7283 -76.8208 305° West 160 184 7,900  Level Cleveland Center
09:16PM 43.0072 -77.4663 309° West  Level Estimated
09:16PM 42.7508 -76.8761 299° West 173 199 7,900  Level Cleveland Center
09:17PM 43.0370 -77.5209 304° West  Level Estimated
09:17PM 42.7758 -76.9369 299° West 171 197 7,900  Level Cleveland Center
09:18PM 42.8003 -76.9892 303° West 173 199 7,900 -360 Level Cleveland Center
09:19PM 42.8214 -77.0644 291° West 191 220 7,200 -840 Descending Cleveland Center
09:20PM 42.8319 -77.1347 282° West 188 216 6,200 -840 Descending Cleveland Center
09:21PM 42.8483 -77.1989 289° West 185 213 5,500 -540 Descending Cleveland Center
09:22PM 42.8669 -77.2658 291° West 178 205 5,200 -540 Descending Cleveland Center
09:23PM 42.8872 -77.3214 296° West 180 207 4,500 -660 Descending Cleveland Center
09:24PM 42.9056 -77.3800 293° West 191 220 4,100 -240 Descending Cleveland Center
09:25PM 42.9239 -77.4417 292° West 177 204 4,100 -300 Level Cleveland Center
09:26PM 42.9425 -77.5058 292° West 179 206 3,500 -780 Descending Cleveland Center
09:27PM 42.9567 -77.5703 287° West 194 223 2,700 -600 Descending Cleveland Center
09:28PM 42.9686 -77.6350 284° West 179 206 2,500 -120 Descending Cleveland Center
09:29PM 42.9828 -77.6942 288° West 173 199 2,500  Level Cleveland Center